createdAt,value
2024-02-29T00:00:46.289Z,239.30
2024-02-29T00:01:45.450Z,236.00
2024-02-29T00:02:45.302Z,233.70
2024-02-29T00:03:45.323Z,235.20
2024-02-29T00:04:45.378Z,286.80
2024-02-29T00:05:45.280Z,333.80
2024-02-29T00:06:45.283Z,313.70
2024-02-29T00:07:45.273Z,358.00
2024-02-29T00:08:45.290Z,324.80
2024-02-29T00:09:45.301Z,316.70
2024-02-29T00:10:45.304Z,346.70
2024-02-29T00:11:45.271Z,341.50
2024-02-29T00:12:45.271Z,390.10
2024-02-29T00:13:45.268Z,405.20
2024-02-29T00:14:45.259Z,436.30
2024-02-29T00:15:45.271Z,444.20
2024-02-29T00:16:45.254Z,444.90
2024-02-29T00:17:45.258Z,446.70
2024-02-29T00:18:45.280Z,454.10
2024-02-29T00:19:45.195Z,467.90
2024-02-29T00:20:45.218Z,464.60
2024-02-29T00:21:45.209Z,471.90
2024-02-29T00:22:45.218Z,462.30
2024-02-29T00:23:45.196Z,464.60
2024-02-29T00:24:45.197Z,463.10
2024-02-29T00:25:45.172Z,463.50
2024-02-29T00:26:45.265Z,458.20
2024-02-29T00:27:45.194Z,458.90
2024-02-29T00:28:45.144Z,456.70
2024-02-29T00:29:45.136Z,419.70
2024-02-29T00:30:45.202Z,459.20
2024-02-29T00:31:45.141Z,451.90
2024-02-29T00:32:45.174Z,453.10
2024-02-29T00:33:45.180Z,461.00
2024-02-29T00:34:45.088Z,455.90
2024-02-29T00:35:49.335Z,449.70
2024-02-29T00:36:46.248Z,452.40
2024-02-29T00:37:45.098Z,463.90
2024-02-29T00:38:45.084Z,457.10
2024-02-29T00:39:45.094Z,459.80
2024-02-29T00:40:45.150Z,455.80
2024-02-29T00:41:45.110Z,454.90
2024-02-29T00:42:45.091Z,468.00
2024-02-29T00:43:45.063Z,465.00
2024-02-29T00:44:45.084Z,458.10
2024-02-29T00:45:45.128Z,463.80
2024-02-29T00:46:45.115Z,471.30
2024-02-29T00:47:45.041Z,473.10
2024-02-29T00:48:45.040Z,469.40
2024-02-29T00:49:45.019Z,471.70
2024-02-29T00:50:45.008Z,479.30
2024-02-29T00:51:45.108Z,478.90
2024-02-29T00:52:44.979Z,480.00
2024-02-29T00:53:44.995Z,470.30
2024-02-29T00:54:45.015Z,484.90
2024-02-29T00:55:44.967Z,464.00
2024-02-29T00:56:44.988Z,451.50
2024-02-29T00:57:44.988Z,471.90
2024-02-29T00:58:44.957Z,478.90
2024-02-29T00:59:44.942Z,473.30
2024-02-29T01:00:45.078Z,476.00
2024-02-29T01:01:45.091Z,479.90
2024-02-29T01:02:44.976Z,468.20
2024-02-29T01:03:44.929Z,485.30
2024-02-29T01:04:44.919Z,475.80
2024-02-29T01:05:44.925Z,483.80
2024-02-29T01:06:44.933Z,489.80
2024-02-29T01:07:45.078Z,482.50
2024-02-29T01:08:44.904Z,490.50
2024-02-29T01:09:44.936Z,496.70
2024-02-29T01:10:44.934Z,493.10
2024-02-29T01:11:44.894Z,493.00
2024-02-29T01:12:44.984Z,484.70
2024-02-29T01:13:44.867Z,493.40
2024-02-29T01:14:44.865Z,491.40
2024-02-29T01:15:44.923Z,500.20
2024-02-29T01:16:44.864Z,501.30
2024-02-29T01:17:44.838Z,488.60
2024-02-29T01:18:44.847Z,502.80
2024-02-29T01:19:44.857Z,489.80
2024-02-29T01:20:44.826Z,488.00
2024-02-29T01:21:44.841Z,496.00
2024-02-29T01:22:44.827Z,484.60
2024-02-29T01:23:44.803Z,492.10
2024-02-29T01:24:44.835Z,485.50
2024-02-29T01:25:45.796Z,483.40
2024-02-29T01:26:44.788Z,486.40
2024-02-29T01:27:44.869Z,478.80
2024-02-29T01:28:44.815Z,489.70
2024-02-29T01:29:44.778Z,500.40
2024-02-29T01:30:44.859Z,488.30
2024-02-29T01:31:44.767Z,470.60
2024-02-29T01:32:44.762Z,480.80
2024-02-29T01:33:44.754Z,472.40
2024-02-29T01:34:44.722Z,473.30
2024-02-29T01:35:44.716Z,468.90
2024-02-29T01:36:44.747Z,468.60
2024-02-29T01:37:44.720Z,466.40
2024-02-29T01:38:44.690Z,467.70
2024-02-29T01:39:44.775Z,453.50
2024-02-29T01:40:44.711Z,461.10
2024-02-29T01:41:44.668Z,451.90
2024-02-29T01:42:44.755Z,449.30
2024-02-29T01:43:44.658Z,444.10
2024-02-29T01:44:44.740Z,450.50
2024-02-29T01:45:44.732Z,467.20
2024-02-29T01:46:44.688Z,452.40
2024-02-29T01:47:44.683Z,460.30
2024-02-29T01:48:44.628Z,436.50
2024-02-29T01:49:44.639Z,460.60
2024-02-29T01:50:44.661Z,444.50
2024-02-29T01:51:44.648Z,442.50
2024-02-29T01:52:44.627Z,445.10
2024-02-29T01:53:44.601Z,449.20
2024-02-29T01:54:45.630Z,451.00
2024-02-29T01:55:44.608Z,470.40
2024-02-29T01:56:44.614Z,449.20
2024-02-29T01:57:44.621Z,439.50
2024-02-29T01:58:44.569Z,435.90
2024-02-29T01:59:44.569Z,425.20
2024-02-29T02:00:44.609Z,430.20
2024-02-29T02:01:44.669Z,433.30
2024-02-29T02:02:44.542Z,417.40
2024-02-29T02:03:44.610Z,425.20
2024-02-29T02:04:44.583Z,411.50
2024-02-29T02:05:44.531Z,404.70
2024-02-29T02:06:44.524Z,407.80
2024-02-29T02:07:44.543Z,389.30
2024-02-29T02:08:44.511Z,384.10
2024-02-29T02:09:44.519Z,403.00
2024-02-29T02:10:44.609Z,412.50
2024-02-29T02:11:44.540Z,426.50
2024-02-29T02:12:44.808Z,439.20
2024-02-29T02:13:44.507Z,446.10
2024-02-29T02:14:44.485Z,450.30
2024-02-29T02:15:44.510Z,447.90
2024-02-29T02:16:44.463Z,446.50
2024-02-29T02:17:44.484Z,440.80
2024-02-29T02:18:44.519Z,463.50
2024-02-29T02:19:44.468Z,457.50
2024-02-29T02:20:44.466Z,442.00
2024-02-29T02:21:44.476Z,442.40
2024-02-29T02:22:44.414Z,449.50
2024-02-29T02:23:44.435Z,461.30
2024-02-29T02:24:44.442Z,478.30
2024-02-29T02:25:44.410Z,485.20
2024-02-29T02:26:44.412Z,487.00
2024-02-29T02:27:44.482Z,494.00
2024-02-29T02:28:44.438Z,498.90
2024-02-29T02:29:44.489Z,514.80
2024-02-29T02:30:44.384Z,514.40
2024-02-29T02:31:44.401Z,517.80
2024-02-29T02:32:44.425Z,510.00
2024-02-29T02:33:44.444Z,501.50
2024-02-29T02:34:44.396Z,521.70
2024-02-29T02:35:44.361Z,519.90
2024-02-29T02:36:44.372Z,515.90
2024-02-29T02:37:44.368Z,510.70
2024-02-29T02:38:44.360Z,501.30
2024-02-29T02:39:44.395Z,509.60
2024-02-29T02:40:44.336Z,505.70
2024-02-29T02:41:44.331Z,519.80
2024-02-29T02:42:45.399Z,518.50
2024-02-29T02:43:44.330Z,519.50
2024-02-29T02:44:44.341Z,522.70
2024-02-29T02:45:44.337Z,523.80
2024-02-29T02:46:44.272Z,511.10
2024-02-29T02:47:44.329Z,511.10
2024-02-29T02:48:44.297Z,502.80
2024-02-29T02:49:44.261Z,486.40
2024-02-29T02:50:44.512Z,498.00
2024-02-29T02:51:44.316Z,497.70
2024-02-29T02:52:44.277Z,505.50
2024-02-29T02:53:44.273Z,496.90
2024-02-29T02:54:44.280Z,502.20
2024-02-29T02:55:44.253Z,546.30
2024-02-29T02:56:44.279Z,686.80
2024-02-29T02:57:44.231Z,615.90
2024-02-29T02:58:44.246Z,527.30
2024-02-29T02:59:44.244Z,514.60
2024-02-29T03:00:44.272Z,541.60
2024-02-29T03:01:44.302Z,548.30
2024-02-29T03:02:44.220Z,522.20
2024-02-29T03:03:44.213Z,470.30
2024-02-29T03:04:44.204Z,425.70
2024-02-29T03:05:44.178Z,389.60
2024-02-29T03:06:45.253Z,367.40
2024-02-29T03:07:44.197Z,352.60
2024-02-29T03:08:44.168Z,342.30
2024-02-29T03:09:44.241Z,355.40
2024-02-29T03:10:44.190Z,360.60
2024-02-29T03:11:44.174Z,325.10
2024-02-29T03:12:44.170Z,292.60
2024-02-29T03:13:44.179Z,289.20
2024-02-29T03:14:44.155Z,291.70
2024-02-29T03:15:44.203Z,282.20
2024-02-29T03:16:44.151Z,267.30
2024-02-29T03:17:44.144Z,267.40
2024-02-29T03:18:44.159Z,288.20
2024-02-29T03:19:44.112Z,324.70
2024-02-29T03:20:44.195Z,346.70
2024-02-29T03:21:44.170Z,359.40
2024-02-29T03:22:44.104Z,370.50
2024-02-29T03:23:44.131Z,381.80
2024-02-29T03:24:44.119Z,392.60
2024-02-29T03:25:45.080Z,392.70
2024-02-29T03:26:44.084Z,383.10
2024-02-29T03:27:44.121Z,383.80
2024-02-29T03:28:44.079Z,372.20
2024-02-29T03:29:44.072Z,359.60
2024-02-29T03:30:44.060Z,362.10
2024-02-29T03:31:44.052Z,352.30
2024-02-29T03:32:44.095Z,364.90
2024-02-29T03:33:44.117Z,377.80
2024-02-29T03:34:44.046Z,386.40
2024-02-29T03:35:44.069Z,398.40
2024-02-29T03:36:44.097Z,388.70
2024-02-29T03:37:44.012Z,373.80
2024-02-29T03:38:44.026Z,369.50
2024-02-29T03:39:44.036Z,356.20
2024-02-29T03:40:44.000Z,349.50
2024-02-29T03:41:44.001Z,337.90
2024-02-29T03:42:44.073Z,337.80
2024-02-29T03:43:43.995Z,339.30
2024-02-29T03:44:44.015Z,322.30
2024-02-29T03:45:44.004Z,325.60
2024-02-29T03:46:43.976Z,319.40
2024-02-29T03:47:44.015Z,314.70
2024-02-29T03:48:43.973Z,314.00
2024-02-29T03:49:43.987Z,315.40
2024-02-29T03:50:43.958Z,316.80
2024-02-29T03:51:44.002Z,315.80
2024-02-29T03:52:43.951Z,312.50
2024-02-29T03:53:43.932Z,311.30
2024-02-29T03:54:43.942Z,310.50
2024-02-29T03:55:44.776Z,303.10
2024-02-29T03:56:43.928Z,300.50
2024-02-29T03:57:43.911Z,318.10
2024-02-29T03:58:43.910Z,316.60
2024-02-29T03:59:43.895Z,315.00
2024-02-29T04:00:43.902Z,322.30
2024-02-29T04:01:44.030Z,326.60
2024-02-29T04:02:43.877Z,331.10
2024-02-29T04:03:43.933Z,341.90
2024-02-29T04:04:43.868Z,339.00
2024-02-29T04:05:43.901Z,341.60
2024-02-29T04:06:43.945Z,357.10
2024-02-29T04:07:43.923Z,357.10
2024-02-29T04:08:43.865Z,360.90
2024-02-29T04:09:43.901Z,367.90
2024-02-29T04:10:43.881Z,365.90
2024-02-29T04:11:43.827Z,371.30
2024-02-29T04:12:43.845Z,371.60
2024-02-29T04:13:43.827Z,378.00
2024-02-29T04:14:43.826Z,374.00
2024-02-29T04:15:44.782Z,365.00
2024-02-29T04:16:43.830Z,364.40
2024-02-29T04:17:43.843Z,361.10
2024-02-29T04:18:43.807Z,359.40
2024-02-29T04:19:43.770Z,366.40
2024-02-29T04:20:43.788Z,370.80
2024-02-29T04:21:43.876Z,373.30
2024-02-29T04:22:43.790Z,368.80
2024-02-29T04:23:43.817Z,371.70
2024-02-29T04:24:43.922Z,370.50
2024-02-29T04:25:43.772Z,371.70
2024-02-29T04:26:43.758Z,370.90
2024-02-29T04:27:43.761Z,376.00
2024-02-29T04:28:43.736Z,381.70
2024-02-29T04:29:43.747Z,381.10
2024-02-29T04:30:43.903Z,374.80
2024-02-29T04:31:43.746Z,373.70
2024-02-29T04:32:43.777Z,372.90
2024-02-29T04:33:43.727Z,376.00
2024-02-29T04:34:43.685Z,371.80
2024-02-29T04:35:43.710Z,373.30
2024-02-29T04:36:43.778Z,374.10
2024-02-29T04:37:43.684Z,374.40
2024-02-29T04:38:43.686Z,377.50
2024-02-29T04:39:43.698Z,378.40
2024-02-29T04:40:43.676Z,375.80
2024-02-29T04:41:43.695Z,378.70
2024-02-29T04:42:43.675Z,376.90
2024-02-29T04:43:43.618Z,377.60
2024-02-29T04:44:44.628Z,369.70
2024-02-29T04:45:43.662Z,371.20
2024-02-29T04:46:43.679Z,371.50
2024-02-29T04:47:43.649Z,374.90
2024-02-29T04:48:43.733Z,371.70
2024-02-29T04:49:43.616Z,366.70
2024-02-29T04:50:43.608Z,368.10
2024-02-29T04:51:43.691Z,370.40
2024-02-29T04:52:43.618Z,369.80
2024-02-29T04:53:43.609Z,370.30
2024-02-29T04:54:43.645Z,374.30
2024-02-29T04:55:43.578Z,374.00
2024-02-29T04:56:43.569Z,374.10
2024-02-29T04:57:43.607Z,375.80
2024-02-29T04:58:43.634Z,380.90
2024-02-29T04:59:43.554Z,378.50
2024-02-29T05:00:43.672Z,376.20
2024-02-29T05:01:43.641Z,385.40
2024-02-29T05:02:43.548Z,382.60
2024-02-29T05:03:43.588Z,385.30
2024-02-29T05:04:43.528Z,379.10
2024-02-29T05:05:43.528Z,380.40
2024-02-29T05:06:43.562Z,380.70
2024-02-29T05:07:43.543Z,382.30
2024-02-29T05:08:43.561Z,381.70
2024-02-29T05:09:43.555Z,381.30
2024-02-29T05:10:43.539Z,373.90
2024-02-29T05:11:43.479Z,376.80
2024-02-29T05:12:43.504Z,383.90
2024-02-29T05:13:43.497Z,380.60
2024-02-29T05:14:43.551Z,381.30
2024-02-29T05:15:43.529Z,379.70
2024-02-29T05:16:43.487Z,382.50
2024-02-29T05:17:43.502Z,385.40
2024-02-29T05:18:43.531Z,382.90
2024-02-29T05:19:43.495Z,387.60
2024-02-29T05:20:43.532Z,386.90
2024-02-29T05:21:43.486Z,384.10
2024-02-29T05:22:43.437Z,387.30
2024-02-29T05:23:43.466Z,391.40
2024-02-29T05:24:43.494Z,389.40
2024-02-29T05:25:43.464Z,392.00
2024-02-29T05:26:43.760Z,392.20
2024-02-29T05:27:43.447Z,391.60
2024-02-29T05:28:43.427Z,392.20
2024-02-29T05:29:44.265Z,385.30
2024-02-29T05:30:43.462Z,392.10
2024-02-29T05:31:43.439Z,391.20
2024-02-29T05:32:43.448Z,392.30
2024-02-29T05:33:43.498Z,386.70
2024-02-29T05:34:43.386Z,385.40
2024-02-29T05:35:43.391Z,389.90
2024-02-29T05:36:43.497Z,391.00
2024-02-29T05:37:43.371Z,393.50
2024-02-29T05:38:43.379Z,396.30
2024-02-29T05:39:43.492Z,399.00
2024-02-29T05:40:43.368Z,393.90
2024-02-29T05:41:43.342Z,391.10
2024-02-29T05:42:43.420Z,394.20
2024-02-29T05:43:43.356Z,404.80
2024-02-29T05:44:43.381Z,394.20
2024-02-29T05:45:43.383Z,407.50
2024-02-29T05:46:43.336Z,402.70
2024-02-29T05:47:43.375Z,402.10
2024-02-29T05:48:43.455Z,411.90
2024-02-29T05:49:43.344Z,410.20
2024-02-29T05:50:43.340Z,411.70
2024-02-29T05:51:43.418Z,407.50
2024-02-29T05:52:43.356Z,409.20
2024-02-29T05:53:43.376Z,413.40
2024-02-29T05:54:43.347Z,414.50
2024-02-29T05:55:43.436Z,410.90
2024-02-29T05:56:43.288Z,415.20
2024-02-29T05:57:43.556Z,410.20
2024-02-29T05:58:43.276Z,416.70
2024-02-29T05:59:43.295Z,415.60
2024-02-29T06:00:43.344Z,421.40
2024-02-29T06:01:43.353Z,420.90
2024-02-29T06:02:43.312Z,422.80
2024-02-29T06:03:43.374Z,414.10
2024-02-29T06:04:43.256Z,417.90
2024-02-29T06:05:43.249Z,426.60
2024-02-29T06:06:43.250Z,423.30
2024-02-29T06:07:43.238Z,424.10
2024-02-29T06:08:43.215Z,428.10
2024-02-29T06:09:43.237Z,425.00
2024-02-29T06:10:43.228Z,431.00
2024-02-29T06:11:43.190Z,433.60
2024-02-29T06:12:43.242Z,435.50
2024-02-29T06:13:43.236Z,429.00
2024-02-29T06:14:43.208Z,438.90
2024-02-29T06:15:43.444Z,434.30
2024-02-29T06:16:43.185Z,432.60
2024-02-29T06:17:43.207Z,441.50
2024-02-29T06:18:43.186Z,442.60
2024-02-29T06:19:43.142Z,429.80
2024-02-29T06:20:43.263Z,431.90
2024-02-29T06:21:43.188Z,432.00
2024-02-29T06:22:43.153Z,434.50
2024-02-29T06:23:43.250Z,431.30
2024-02-29T06:24:43.124Z,425.40
2024-02-29T06:25:43.132Z,428.00
2024-02-29T06:26:43.136Z,435.10
2024-02-29T06:27:43.123Z,422.90
2024-02-29T06:28:43.112Z,418.80
2024-02-29T06:29:43.119Z,440.60
2024-02-29T06:30:43.184Z,417.00
2024-02-29T06:31:43.125Z,413.60
2024-02-29T06:32:43.129Z,413.90
2024-02-29T06:33:43.132Z,424.50
2024-02-29T06:34:43.092Z,403.60
2024-02-29T06:35:43.102Z,411.80
2024-02-29T06:36:43.126Z,402.70
2024-02-29T06:37:43.076Z,406.10
2024-02-29T06:38:43.078Z,401.20
2024-02-29T06:39:43.120Z,397.30
2024-02-29T06:40:43.117Z,397.40
2024-02-29T06:41:43.087Z,404.40
2024-02-29T06:42:43.173Z,401.10
2024-02-29T06:43:43.048Z,398.40
2024-02-29T06:44:44.033Z,392.50
2024-02-29T06:45:43.051Z,392.50
2024-02-29T06:46:43.064Z,391.50
2024-02-29T06:47:43.779Z,395.60
2024-02-29T06:48:43.035Z,404.40
2024-02-29T06:49:42.982Z,387.50
2024-02-29T06:50:43.049Z,378.90
2024-02-29T06:51:43.018Z,382.30
2024-02-29T06:52:42.953Z,377.30
2024-02-29T06:53:42.974Z,377.60
2024-02-29T06:54:43.015Z,384.40
2024-02-29T06:55:42.966Z,388.60
2024-02-29T06:56:42.966Z,402.10
2024-02-29T06:57:42.957Z,399.30
2024-02-29T06:58:42.942Z,387.20
2024-02-29T06:59:42.943Z,386.10
2024-02-29T07:00:42.989Z,384.20
2024-02-29T07:01:43.001Z,379.60
2024-02-29T07:02:42.931Z,365.00
2024-02-29T07:03:42.968Z,360.20
2024-02-29T07:04:42.943Z,353.70
2024-02-29T07:05:42.938Z,343.50
2024-02-29T07:06:43.112Z,341.50
2024-02-29T07:07:42.929Z,331.00
2024-02-29T07:08:42.948Z,333.80
2024-02-29T07:09:42.893Z,337.50
2024-02-29T07:10:42.886Z,336.70
2024-02-29T07:11:43.020Z,337.20
2024-02-29T07:12:42.918Z,338.50
2024-02-29T07:13:42.881Z,337.90
2024-02-29T07:14:42.886Z,331.00
2024-02-29T07:15:42.899Z,330.80
2024-02-29T07:16:42.842Z,320.40
2024-02-29T07:17:42.857Z,324.20
2024-02-29T07:18:42.964Z,323.40
2024-02-29T07:19:42.835Z,309.20
2024-02-29T07:20:42.913Z,307.80
2024-02-29T07:21:42.823Z,303.60
2024-02-29T07:22:42.876Z,302.90
2024-02-29T07:23:42.785Z,292.00
2024-02-29T07:24:42.819Z,295.70
2024-02-29T07:25:42.790Z,301.20
2024-02-29T07:26:42.857Z,299.70
2024-02-29T07:27:42.816Z,303.40
2024-02-29T07:28:42.783Z,277.20
2024-02-29T07:29:42.766Z,230.00
2024-02-29T07:30:42.807Z,193.00
2024-02-29T07:31:42.774Z,186.80
2024-02-29T07:32:42.806Z,177.30
2024-02-29T07:33:42.846Z,162.50
2024-02-29T07:34:42.799Z,159.80
2024-02-29T07:35:42.774Z,119.50
2024-02-29T07:36:42.810Z,146.60
2024-02-29T07:37:42.789Z,119.10
2024-02-29T07:38:42.751Z,144.00
2024-02-29T07:39:42.750Z,110.10
2024-02-29T07:40:42.756Z,139.30
2024-02-29T07:41:42.709Z,125.60
2024-02-29T07:42:42.790Z,95.40
2024-02-29T07:43:42.693Z,94.20
2024-02-29T07:44:42.704Z,95.30
2024-02-29T07:45:42.730Z,52.60
2024-02-29T07:46:42.681Z,62.90
2024-02-29T07:47:42.714Z,84.50
2024-02-29T07:48:42.682Z,111.70
2024-02-29T07:49:42.633Z,78.50
2024-02-29T07:50:42.658Z,74.00
2024-02-29T07:51:42.719Z,62.10
2024-02-29T07:52:42.699Z,41.40
2024-02-29T07:53:42.637Z,57.60
2024-02-29T07:54:42.661Z,116.30
2024-02-29T07:55:42.647Z,129.60
2024-02-29T07:56:42.679Z,122.70
2024-02-29T07:57:42.647Z,127.40
2024-02-29T07:58:42.602Z,123.90
2024-02-29T07:59:42.594Z,121.10
2024-02-29T08:00:42.627Z,126.30
2024-02-29T08:01:42.605Z,93.50
2024-02-29T08:02:42.574Z,98.40
2024-02-29T08:03:42.601Z,57.30
2024-02-29T08:04:42.621Z,90.90
2024-02-29T08:05:42.559Z,105.60
2024-02-29T08:06:42.556Z,117.10
2024-02-29T08:07:42.567Z,106.40
2024-02-29T08:08:42.537Z,87.60
2024-02-29T08:09:42.591Z,60.10
2024-02-29T08:10:42.533Z,45.00
2024-02-29T08:11:42.597Z,37.50
2024-02-29T08:12:42.575Z,34.30
2024-02-29T08:13:42.534Z,36.60
2024-02-29T08:14:42.513Z,33.00
2024-02-29T08:15:42.547Z,42.10
2024-02-29T08:16:42.521Z,44.40
2024-02-29T08:17:42.505Z,44.20
2024-02-29T08:18:43.168Z,33.40
2024-02-29T08:19:42.513Z,25.90
2024-02-29T08:20:42.541Z,20.30
2024-02-29T08:21:42.490Z,17.60
2024-02-29T08:22:42.487Z,16.10
2024-02-29T08:23:42.524Z,24.80
2024-02-29T08:24:42.533Z,53.60
2024-02-29T08:25:42.466Z,41.30
2024-02-29T08:26:42.437Z,69.20
2024-02-29T08:27:42.540Z,40.00
2024-02-29T08:28:42.539Z,36.60
2024-02-29T08:29:42.495Z,35.60
2024-02-29T08:30:42.476Z,37.50
2024-02-29T08:31:42.571Z,31.60
2024-02-29T08:32:42.506Z,28.20
2024-02-29T08:33:42.538Z,24.50
2024-02-29T08:34:42.515Z,24.00
2024-02-29T08:35:42.399Z,24.20
2024-02-29T08:36:42.428Z,27.40
2024-02-29T08:37:42.372Z,30.90
2024-02-29T08:38:42.366Z,36.30
2024-02-29T08:39:42.694Z,37.00
2024-02-29T08:40:42.551Z,38.40
2024-02-29T08:41:42.359Z,35.00
2024-02-29T08:42:42.403Z,27.60
2024-02-29T08:43:42.340Z,24.20
2024-02-29T08:44:42.346Z,20.40
2024-02-29T08:45:42.379Z,17.40
2024-02-29T08:46:42.321Z,17.60
2024-02-29T08:47:42.440Z,17.40
2024-02-29T08:48:42.346Z,17.20
2024-02-29T08:49:42.304Z,17.80
2024-02-29T08:50:42.334Z,22.50
2024-02-29T08:51:42.390Z,17.70
2024-02-29T08:52:42.286Z,19.20
2024-02-29T08:53:42.282Z,18.90
2024-02-29T08:54:42.275Z,18.10
2024-02-29T08:55:42.285Z,17.90
2024-02-29T08:56:42.264Z,14.20
2024-02-29T08:57:42.289Z,13.60
2024-02-29T08:58:42.243Z,14.90
2024-02-29T08:59:42.229Z,16.40
2024-02-29T09:00:42.295Z,18.00
2024-02-29T09:01:42.313Z,16.70
2024-02-29T09:02:42.232Z,17.00
2024-02-29T09:03:42.214Z,17.00
2024-02-29T09:04:42.244Z,17.40
2024-02-29T09:05:42.194Z,19.90
2024-02-29T09:06:42.443Z,24.20
2024-02-29T09:07:42.229Z,25.90
2024-02-29T09:08:42.186Z,25.40
2024-02-29T09:09:42.213Z,21.60
2024-02-29T09:10:42.167Z,18.10
2024-02-29T09:11:42.180Z,19.30
2024-02-29T09:12:42.254Z,28.90
2024-02-29T09:13:43.264Z,26.50
2024-02-29T09:14:42.191Z,27.60
2024-02-29T09:15:42.183Z,28.90
2024-02-29T09:16:42.122Z,25.60
2024-02-29T09:17:42.159Z,25.10
2024-02-29T09:18:42.159Z,21.20
2024-02-29T09:19:42.106Z,20.40
2024-02-29T09:20:42.103Z,16.80
2024-02-29T09:21:42.117Z,19.40
2024-02-29T09:22:42.105Z,16.90
2024-02-29T09:23:42.153Z,18.40
2024-02-29T09:24:42.127Z,27.20
2024-02-29T09:25:42.081Z,18.60
2024-02-29T09:26:42.077Z,18.70
2024-02-29T09:27:42.076Z,16.60
2024-02-29T09:28:42.118Z,17.30
2024-02-29T09:29:42.067Z,17.60
2024-02-29T09:30:42.095Z,19.30
2024-02-29T09:31:42.039Z,20.70
2024-02-29T09:32:42.051Z,18.80
2024-02-29T09:33:42.169Z,20.40
2024-02-29T09:34:46.068Z,24.50
2024-02-29T09:35:44.054Z,26.10
2024-02-29T09:36:42.005Z,31.70
2024-02-29T09:37:41.997Z,28.50
2024-02-29T09:38:41.996Z,30.90
2024-02-29T09:39:42.069Z,30.90
2024-02-29T09:40:49.199Z,29.20
2024-02-29T09:41:59.636Z,26.90
2024-02-29T09:42:42.986Z,27.30
2024-02-29T09:43:41.970Z,17.50
2024-02-29T09:44:41.962Z,19.80
2024-02-29T09:45:41.980Z,21.10
2024-02-29T09:46:41.963Z,20.50
2024-02-29T09:47:42.970Z,20.50
2024-02-29T09:48:41.928Z,18.70
2024-02-29T09:49:42.325Z,17.40
2024-02-29T09:50:42.946Z,17.70
2024-02-29T09:51:41.964Z,16.70
2024-02-29T09:52:41.905Z,17.80
2024-02-29T09:53:41.903Z,16.50
2024-02-29T09:54:41.935Z,17.20
2024-02-29T09:55:41.919Z,17.60
2024-02-29T09:56:41.908Z,17.60
2024-02-29T09:57:41.923Z,17.20
2024-02-29T09:58:41.845Z,16.50
2024-02-29T09:59:41.911Z,16.80
2024-02-29T10:00:41.946Z,17.80
2024-02-29T10:01:42.001Z,17.90
2024-02-29T10:02:41.849Z,19.70
2024-02-29T10:03:41.852Z,20.30
2024-02-29T10:04:41.822Z,22.50
2024-02-29T10:05:41.846Z,22.50
2024-02-29T10:06:41.863Z,21.70
2024-02-29T10:07:41.830Z,22.10
2024-02-29T10:08:41.805Z,21.50
2024-02-29T10:09:41.824Z,21.90
2024-02-29T10:10:41.808Z,20.10
2024-02-29T10:11:42.805Z,31.70
2024-02-29T10:12:41.783Z,19.50
2024-02-29T10:13:41.807Z,23.50
2024-02-29T10:14:41.748Z,21.40
2024-02-29T10:15:41.792Z,19.50
2024-02-29T10:16:42.768Z,18.20
2024-02-29T10:17:41.798Z,18.80
2024-02-29T10:18:41.742Z,19.30
2024-02-29T10:19:41.739Z,17.00
2024-02-29T10:20:41.733Z,17.90
2024-02-29T10:21:41.724Z,17.40
2024-02-29T10:22:41.722Z,17.40
2024-02-29T10:23:41.724Z,18.50
2024-02-29T10:24:41.710Z,18.10
2024-02-29T10:25:41.672Z,18.60
2024-02-29T10:26:41.691Z,20.00
2024-02-29T10:27:41.932Z,19.70
2024-02-29T10:28:41.692Z,19.40
2024-02-29T10:29:41.687Z,20.00
2024-02-29T10:30:41.741Z,19.60
2024-02-29T10:31:41.632Z,20.40
2024-02-29T10:32:41.672Z,19.50
2024-02-29T10:33:41.673Z,25.60
2024-02-29T10:34:41.641Z,21.50
2024-02-29T10:35:41.623Z,17.20
2024-02-29T10:36:41.771Z,19.40
2024-02-29T10:37:41.605Z,20.00
2024-02-29T10:38:41.594Z,18.90
2024-02-29T10:39:41.629Z,18.40
2024-02-29T10:40:41.577Z,21.00
2024-02-29T10:41:41.605Z,18.30
2024-02-29T10:42:41.610Z,19.40
2024-02-29T10:43:41.589Z,18.30
2024-02-29T10:44:41.580Z,16.60
2024-02-29T10:45:41.613Z,22.70
2024-02-29T10:46:41.585Z,17.40
2024-02-29T10:47:41.600Z,18.90
2024-02-29T10:48:41.577Z,18.60
2024-02-29T10:49:41.553Z,17.60
2024-02-29T10:50:41.522Z,16.90
2024-02-29T10:51:41.548Z,18.80
2024-02-29T10:52:41.532Z,17.40
2024-02-29T10:53:41.537Z,17.70
2024-02-29T10:54:41.542Z,18.30
2024-02-29T10:55:41.540Z,17.70
2024-02-29T10:56:43.239Z,16.60
2024-02-29T10:57:42.513Z,17.60
2024-02-29T10:58:41.501Z,17.90
2024-02-29T10:59:41.471Z,17.40
2024-02-29T11:00:41.541Z,17.70
2024-02-29T11:01:41.543Z,18.10
2024-02-29T11:02:41.469Z,18.40
2024-02-29T11:03:41.493Z,17.70
2024-02-29T11:04:42.211Z,17.70
2024-02-29T11:05:41.454Z,17.70
2024-02-29T11:06:41.463Z,17.40
2024-02-29T11:07:41.503Z,16.70
2024-02-29T11:08:41.650Z,17.10
2024-02-29T11:09:41.542Z,16.10
2024-02-29T11:10:41.470Z,16.20
2024-02-29T11:11:41.412Z,16.80
2024-02-29T11:12:41.533Z,17.00
2024-02-29T11:13:41.388Z,15.60
2024-02-29T11:14:41.409Z,15.50
2024-02-29T11:15:41.578Z,16.30
2024-02-29T11:16:41.389Z,16.50
2024-02-29T11:17:42.412Z,15.80
2024-02-29T11:18:41.403Z,16.20
2024-02-29T11:19:47.988Z,16.50
2024-02-29T11:20:43.359Z,15.40
2024-02-29T11:21:41.409Z,16.80
2024-02-29T11:22:41.340Z,15.70
2024-02-29T11:23:41.332Z,15.40
2024-02-29T11:24:41.580Z,16.10
2024-02-29T11:25:41.432Z,16.20
2024-02-29T11:26:41.297Z,17.20
2024-02-29T11:27:41.333Z,18.70
2024-02-29T11:28:41.292Z,16.60
2024-02-29T11:29:41.344Z,16.60
2024-02-29T11:30:41.341Z,14.80
2024-02-29T11:31:41.259Z,16.10
2024-02-29T11:32:41.260Z,15.60
2024-02-29T11:33:41.299Z,15.80
2024-02-29T11:34:41.250Z,15.60
2024-02-29T11:35:41.299Z,15.40
2024-02-29T11:36:41.287Z,15.50
2024-02-29T11:37:41.303Z,14.40
2024-02-29T11:38:41.296Z,15.30
2024-02-29T11:39:41.252Z,16.50
2024-02-29T11:40:41.236Z,15.60
2024-02-29T11:41:41.301Z,15.20
2024-02-29T11:42:41.240Z,15.10
2024-02-29T11:43:41.206Z,14.20
2024-02-29T11:44:41.195Z,14.90
2024-02-29T11:45:41.212Z,14.50
2024-02-29T11:46:41.173Z,14.50
2024-02-29T11:47:41.289Z,14.80
2024-02-29T11:48:41.208Z,14.40
2024-02-29T11:49:41.177Z,14.40
2024-02-29T11:50:41.173Z,14.40
2024-02-29T11:51:41.177Z,13.70
2024-02-29T11:52:41.153Z,14.90
2024-02-29T11:53:41.160Z,14.80
2024-02-29T11:54:41.162Z,14.20
2024-02-29T11:55:41.159Z,13.70
2024-02-29T11:56:41.158Z,14.30
2024-02-29T11:57:42.154Z,14.30
2024-02-29T11:58:41.128Z,15.50
2024-02-29T11:59:41.117Z,14.20
2024-02-29T12:00:41.188Z,14.70
2024-02-29T12:01:41.183Z,13.50
2024-02-29T12:02:41.097Z,14.40
2024-02-29T12:03:41.258Z,13.60
2024-02-29T12:04:41.075Z,14.00
2024-02-29T12:05:41.107Z,15.10
2024-02-29T12:06:41.172Z,12.60
2024-02-29T12:07:41.073Z,14.00
2024-02-29T12:08:41.158Z,14.80
2024-02-29T12:09:41.082Z,13.40
2024-02-29T12:10:49.256Z,14.00
2024-02-29T12:11:42.087Z,13.90
2024-02-29T12:12:41.174Z,13.80
2024-02-29T12:13:41.051Z,15.30
2024-02-29T12:14:41.045Z,13.30
2024-02-29T12:15:41.191Z,13.70
2024-02-29T12:16:41.044Z,13.40
2024-02-29T12:17:41.066Z,14.10
2024-02-29T12:18:41.040Z,13.40
2024-02-29T12:19:41.001Z,13.70
2024-02-29T12:20:42.002Z,13.80
2024-02-29T12:21:41.037Z,14.80
2024-02-29T12:22:41.054Z,18.20
2024-02-29T12:23:40.993Z,19.80
2024-02-29T12:24:41.118Z,14.40
2024-02-29T12:25:40.993Z,14.10
2024-02-29T12:26:40.981Z,13.70
2024-02-29T12:27:42.956Z,14.10
2024-02-29T12:28:40.953Z,14.10
2024-02-29T12:29:40.968Z,13.60
2024-02-29T12:30:40.975Z,14.60
2024-02-29T12:31:40.935Z,13.90
2024-02-29T12:32:41.037Z,13.30
2024-02-29T12:33:41.204Z,13.80
2024-02-29T12:34:41.021Z,15.30
2024-02-29T12:35:40.923Z,12.80
2024-02-29T12:36:40.944Z,14.30
2024-02-29T12:37:40.929Z,13.90